sensor_id;sensor_type;location;lat;lon;timestamp;pressure;altitude;pressure_sealevel;temperature;humidity
28588;BME280;15787;49.662;10.162;2023-04-19T00:00:42;99859.31;;;8.40;95.00
28588;BME280;15787;49.662;10.162;2023-04-19T00:03:15;99858.91;;;8.52;94.35
28588;BME280;15787;49.662;10.162;2023-04-19T00:05:48;99858.13;;;8.45;95.28
28588;BME280;15787;49.662;10.162;2023-04-19T00:08:22;99858.94;;;8.38;95.74
28588;BME280;15787;49.662;10.162;2023-04-19T00:10:55;99852.53;;;8.34;95.50
28588;BME280;15787;49.662;10.162;2023-04-19T00:13:30;99857.31;;;8.37;95.61
28588;BME280;15787;49.662;10.162;2023-04-19T00:16:04;99856.09;;;8.24;95.74
28588;BME280;15787;49.662;10.162;2023-04-19T00:18:37;99852.91;;;8.08;97.36
28588;BME280;15787;49.662;10.162;2023-04-19T00:21:11;99846.16;;;8.05;97.96
28588;BME280;15787;49.662;10.162;2023-04-19T00:23:45;99851.72;;;8.16;98.58
28588;BME280;15787;49.662;10.162;2023-04-19T00:26:18;99850.50;;;8.06;98.90
28588;BME280;15787;49.662;10.162;2023-04-19T00:28:55;99850.09;;;8.11;99.35
28588;BME280;15787;49.662;10.162;2023-04-19T00:31:28;99846.94;;;8.06;98.89
28588;BME280;15787;49.662;10.162;2023-04-19T00:34:01;99848.53;;;8.24;98.52
28588;BME280;15787;49.662;10.162;2023-04-19T00:36:34;99844.97;;;8.17;96.93
28588;BME280;15787;49.662;10.162;2023-04-19T00:39:08;99842.97;;;8.17;96.79
28588;BME280;15787;49.662;10.162;2023-04-19T00:41:42;99846.16;;;8.12;96.11
28588;BME280;15787;49.662;10.162;2023-04-19T00:44:15;99841.38;;;8.06;96.73
28588;BME280;15787;49.662;10.162;2023-04-19T00:46:48;99842.53;;;8.01;97.62
28588;BME280;15787;49.662;10.162;2023-04-19T00:49:22;99842.13;;;7.96;97.62
28588;BME280;15787;49.662;10.162;2023-04-19T00:51:55;99844.53;;;8.01;98.36
28588;BME280;15787;49.662;10.162;2023-04-19T00:54:30;99834.97;;;7.98;98.54
28588;BME280;15787;49.662;10.162;2023-04-19T00:57:03;99834.97;;;7.84;98.49
28588;BME280;15787;49.662;10.162;2023-04-19T00:59:36;99832.56;;;7.65;98.70
28588;BME280;15787;49.662;10.162;2023-04-19T01:02:11;99836.88;;;7.59;100.00
28588;BME280;15787;49.662;10.162;2023-04-19T01:04:44;99835.66;;;7.49;100.00
28588;BME280;15787;49.662;10.162;2023-04-19T01:07:18;99832.13;;;7.52;100.00
28588;BME280;15787;49.662;10.162;2023-04-19T01:09:52;99823.72;;;7.45;100.00
28588;BME280;15787;49.662;10.162;2023-04-19T01:12:25;99825.75;;;7.52;100.00
28588;BME280;15787;49.662;10.162;2023-04-19T01:14:58;99817.44;;;7.66;100.00
28588;BME280;15787;49.662;10.162;2023-04-19T01:17:32;99809.56;;;8.00;100.00
28588;BME280;15787;49.662;10.162;2023-04-19T01:20:06;99815.94;;;7.97;100.00
28588;BME280;15787;49.662;10.162;2023-04-19T01:22:41;99811.56;;;8.10;100.00
28588;BME280;15787;49.662;10.162;2023-04-19T01:25:14;99806.78;;;8.00;100.00
28588;BME280;15787;49.662;10.162;2023-04-19T01:27:47;99812.75;;;8.19;100.00
28588;BME280;15787;49.662;10.162;2023-04-19T01:30:20;99809.19;;;8.05;100.00
28588;BME280;15787;49.662;10.162;2023-04-19T01:32:53;99799.25;;;8.04;100.00
28588;BME280;15787;49.662;10.162;2023-04-19T01:35:26;99801.25;;;8.10;100.00
28588;BME280;15787;49.662;10.162;2023-04-19T01:38:00;99794.44;;;7.76;100.00
28588;BME280;15787;49.662;10.162;2023-04-19T01:40:33;99786.91;;;7.84;100.00
28588;BME280;15787;49.662;10.162;2023-04-19T01:43:10;99790.50;;;8.09;100.00
28588;BME280;15787;49.662;10.162;2023-04-19T01:45:43;99785.34;;;8.21;100.00
28588;BME280;15787;49.662;10.162;2023-04-19T01:48:16;99792.84;;;7.79;100.00
28588;BME280;15787;49.662;10.162;2023-04-19T01:50:49;99786.47;;;7.71;100.00
28588;BME280;15787;49.662;10.162;2023-04-19T01:53:23;99786.50;;;7.96;100.00
28588;BME280;15787;49.662;10.162;2023-04-19T01:55:56;99782.94;;;7.99;100.00
28588;BME280;15787;49.662;10.162;2023-04-19T01:58:30;99782.16;;;8.02;100.00
28588;BME280;15787;49.662;10.162;2023-04-19T02:01:03;99775.41;;;8.20;100.00
28588;BME280;15787;49.662;10.162;2023-04-19T02:03:36;99778.56;;;7.91;100.00
28588;BME280;15787;49.662;10.162;2023-04-19T02:06:09;99767.47;;;8.08;100.00
28588;BME280;15787;49.662;10.162;2023-04-19T02:08:44;99767.84;;;8.24;100.00
28588;BME280;15787;49.662;10.162;2023-04-19T02:11:17;99770.69;;;8.28;100.00
28588;BME280;15787;49.662;10.162;2023-04-19T02:13:51;99765.09;;;8.17;100.00
28588;BME280;15787;49.662;10.162;2023-04-19T02:16:23;99774.63;;;8.20;100.00
28588;BME280;15787;49.662;10.162;2023-04-19T02:18:56;99771.84;;;8.02;100.00
28588;BME280;15787;49.662;10.162;2023-04-19T02:21:30;99766.28;;;8.06;100.00
28588;BME280;15787;49.662;10.162;2023-04-19T02:24:05;99767.44;;;7.91;100.00
28588;BME280;15787;49.662;10.162;2023-04-19T02:26:38;99760.69;;;8.16;100.00
28588;BME280;15787;49.662;10.162;2023-04-19T02:29:15;99764.69;;;8.26;100.00
28588;BME280;15787;49.662;10.162;2023-04-19T02:31:48;99769.47;;;8.33;100.00
28588;BME280;15787;49.662;10.162;2023-04-19T02:34:22;99766.31;;;8.31;100.00
28588;BME280;15787;49.662;10.162;2023-04-19T02:36:56;99771.81;;;8.16;100.00
28588;BME280;15787;49.662;10.162;2023-04-19T02:39:33;99762.69;;;8.23;100.00
28588;BME280;15787;49.662;10.162;2023-04-19T02:42:09;99768.66;;;7.83;100.00
28588;BME280;15787;49.662;10.162;2023-04-19T02:44:43;99757.94;;;8.06;100.00
28588;BME280;15787;49.662;10.162;2023-04-19T02:47:16;99753.56;;;8.15;100.00
28588;BME280;15787;49.662;10.162;2023-04-19T02:49:49;99760.31;;;8.07;100.00
28588;BME280;15787;49.662;10.162;2023-04-19T02:52:25;99749.56;;;7.99;100.00
28588;BME280;15787;49.662;10.162;2023-04-19T02:55:00;99748.38;;;8.07;100.00
28588;BME280;15787;49.662;10.162;2023-04-19T02:57:33;99746.00;;;7.95;100.00
28588;BME280;15787;49.662;10.162;2023-04-19T03:00:08;99743.22;;;7.70;100.00
28588;BME280;15787;49.662;10.162;2023-04-19T03:02:44;99736.44;;;7.71;100.00
28588;BME280;15787;49.662;10.162;2023-04-19T03:05:17;99744.00;;;7.78;100.00
28588;BME280;15787;49.662;10.162;2023-04-19T03:07:50;99745.94;;;7.56;100.00
28588;BME280;15787;49.662;10.162;2023-04-19T03:10:25;99732.03;;;7.42;100.00
28588;BME280;15787;49.662;10.162;2023-04-19T03:12:58;99730.03;;;7.39;100.00
28588;BME280;15787;49.662;10.162;2023-04-19T03:15:30;99722.88;;;7.45;100.00
28588;BME280;15787;49.662;10.162;2023-04-19T03:18:04;99730.84;;;7.43;100.00
28588;BME280;15787;49.662;10.162;2023-04-19T03:20:38;99732.44;;;7.37;100.00
28588;BME280;15787;49.662;10.162;2023-04-19T03:23:11;99726.84;;;7.40;100.00
28588;BME280;15787;49.662;10.162;2023-04-19T03:25:46;99732.84;;;7.49;100.00
28588;BME280;15787;49.662;10.162;2023-04-19T03:28:45;99732.47;;;7.61;100.00
28588;BME280;15787;49.662;10.162;2023-04-19T03:31:29;99719.34;;;7.51;100.00
28588;BME280;15787;49.662;10.162;2023-04-19T03:34:03;99709.41;;;7.43;100.00
28588;BME280;15787;49.662;10.162;2023-04-19T03:36:42;99717.72;;;7.29;100.00
28588;BME280;15787;49.662;10.162;2023-04-19T03:39:15;99710.50;;;7.07;100.00
28588;BME280;15787;49.662;10.162;2023-04-19T03:41:53;99703.38;;;7.06;100.00
28588;BME280;15787;49.662;10.162;2023-04-19T03:44:31;99706.25;;;7.59;100.00
28588;BME280;15787;49.662;10.162;2023-04-19T03:47:06;99697.91;;;7.55;100.00
28588;BME280;15787;49.662;10.162;2023-04-19T03:49:45;99694.38;;;7.90;100.00
28588;BME280;15787;49.662;10.162;2023-04-19T03:52:18;99703.88;;;7.96;100.00
28588;BME280;15787;49.662;10.162;2023-04-19T03:54:51;99690.38;;;7.95;100.00
28588;BME280;15787;49.662;10.162;2023-04-19T03:57:39;99687.22;;;7.93;100.00
28588;BME280;15787;49.662;10.162;2023-04-19T04:00:21;99690.78;;;8.07;100.00
28588;BME280;15787;49.662;10.162;2023-04-19T04:02:59;99689.56;;;7.91;100.00
28588;BME280;15787;49.662;10.162;2023-04-19T04:05:33;99693.97;;;7.78;100.00
28588;BME280;15787;49.662;10.162;2023-04-19T04:08:06;99689.56;;;7.91;100.00
28588;BME280;15787;49.662;10.162;2023-04-19T04:10:39;99690.00;;;7.89;100.00
28588;BME280;15787;49.662;10.162;2023-04-19T04:13:13;99691.97;;;8.03;100.00
28588;BME280;15787;49.662;10.162;2023-04-19T04:15:54;99689.19;;;7.92;100.00
28588;BME280;15787;49.662;10.162;2023-04-19T04:18:27;99686.41;;;7.92;100.00
28588;BME280;15787;49.662;10.162;2023-04-19T04:21:00;99696.34;;;7.76;100.00
28588;BME280;15787;49.662;10.162;2023-04-19T04:23:34;99686.41;;;7.75;100.00
28588;BME280;15787;49.662;10.162;2023-04-19T04:26:11;99679.66;;;7.86;100.00
28588;BME280;15787;49.662;10.162;2023-04-19T04:28:59;99683.25;;;7.87;100.00
28588;BME280;15787;49.662;10.162;2023-04-19T04:31:34;99697.94;;;7.84;100.00
28588;BME280;15787;49.662;10.162;2023-04-19T04:34:08;99689.59;;;7.66;100.00
28588;BME280;15787;49.662;10.162;2023-04-19T04:36:49;99695.16;;;7.77;100.00
28588;BME280;15787;49.662;10.162;2023-04-19T04:39:24;99692.38;;;7.98;100.00
28588;BME280;15787;49.662;10.162;2023-04-19T04:41:57;99685.63;;;7.78;100.00
28588;BME280;15787;49.662;10.162;2023-04-19T04:44:31;99689.56;;;8.12;100.00
28588;BME280;15787;49.662;10.162;2023-04-19T04:47:04;99684.81;;;8.09;100.00
28588;BME280;15787;49.662;10.162;2023-04-19T04:49:44;99681.63;;;8.17;100.00
28588;BME280;15787;49.662;10.162;2023-04-19T04:52:16;99672.50;;;8.13;100.00
28588;BME280;15787;49.662;10.162;2023-04-19T04:55:01;99683.22;;;7.94;100.00
28588;BME280;15787;49.662;10.162;2023-04-19T04:57:38;99677.28;;;8.06;100.00
28588;BME280;15787;49.662;10.162;2023-04-19T05:00:18;99676.88;;;8.07;100.00
28588;BME280;15787;49.662;10.162;2023-04-19T05:03:06;99674.09;;;7.90;100.00
28588;BME280;15787;49.662;10.162;2023-04-19T05:05:43;99680.06;;;7.92;100.00
28588;BME280;15787;49.662;10.162;2023-04-19T05:08:16;99677.66;;;7.83;100.00
28588;BME280;15787;49.662;10.162;2023-04-19T05:10:51;99678.47;;;7.84;100.00
28588;BME280;15787;49.662;10.162;2023-04-19T05:13:27;99674.50;;;7.78;100.00
28588;BME280;15787;49.662;10.162;2023-04-19T05:16:02;99672.13;;;7.90;100.00
28588;BME280;15787;49.662;10.162;2023-04-19T05:18:35;99680.06;;;7.92;100.00
28588;BME280;15787;49.662;10.162;2023-04-19T05:21:09;99675.69;;;7.98;100.00
28588;BME280;15787;49.662;10.162;2023-04-19T05:23:43;99682.44;;;8.00;100.00
28588;BME280;15787;49.662;10.162;2023-04-19T05:26:17;99678.06;;;8.06;100.00
28588;BME280;15787;49.662;10.162;2023-04-19T05:28:52;99681.25;;;8.08;100.00
28588;BME280;15787;49.662;10.162;2023-04-19T05:31:35;99673.69;;;8.09;100.00
28588;BME280;15787;49.662;10.162;2023-04-19T05:34:15;99670.50;;;8.17;100.00
28588;BME280;15787;49.662;10.162;2023-04-19T05:36:52;99673.25;;;8.24;100.00
28588;BME280;15787;49.662;10.162;2023-04-19T05:39:25;99668.47;;;8.53;100.00
28588;BME280;15787;49.662;10.162;2023-04-19T05:41:58;99658.44;;;8.77;100.00
28588;BME280;15787;49.662;10.162;2023-04-19T05:44:32;99654.44;;;8.78;100.00
28588;BME280;15787;49.662;10.162;2023-04-19T05:47:06;99656.03;;;8.75;100.00
28588;BME280;15787;49.662;10.162;2023-04-19T05:50:15;99660.75;;;8.89;100.00
28588;BME280;15787;49.662;10.162;2023-04-19T05:53:06;99650.84;;;8.84;100.00
28588;BME280;15787;49.662;10.162;2023-04-19T05:55:39;99645.69;;;8.79;100.00
28588;BME280;15787;49.662;10.162;2023-04-19T05:58:12;99646.38;;;8.98;100.00
28588;BME280;15787;49.662;10.162;2023-04-19T06:00:45;99657.09;;;9.06;100.00
28588;BME280;15787;49.662;10.162;2023-04-19T06:03:23;99659.34;;;9.29;100.00
28588;BME280;15787;49.662;10.162;2023-04-19T06:06:02;99655.25;;;9.44;100.00
28588;BME280;15787;49.662;10.162;2023-04-19T06:08:36;99661.69;;;9.34;100.00
28588;BME280;15787;49.662;10.162;2023-04-19T06:11:09;99650.56;;;9.34;100.00
28588;BME280;15787;49.662;10.162;2023-04-19T06:13:57;99651.28;;;9.41;100.00
28588;BME280;15787;49.662;10.162;2023-04-19T06:16:30;99650.44;;;9.51;100.00
28588;BME280;15787;49.662;10.162;2023-04-19T06:19:05;99650.06;;;9.46;100.00
28588;BME280;15787;49.662;10.162;2023-04-19T06:21:38;99651.22;;;9.52;100.00
28588;BME280;15787;49.662;10.162;2023-04-19T06:24:11;99653.66;;;9.94;100.00
28588;BME280;15787;49.662;10.162;2023-04-19T06:26:45;99656.44;;;9.94;100.00
28588;BME280;15787;49.662;10.162;2023-04-19T06:29:18;99654.09;;;9.93;100.00
28588;BME280;15787;49.662;10.162;2023-04-19T06:31:54;99660.47;;;9.93;100.00
28588;BME280;15787;49.662;10.162;2023-04-19T06:34:28;99662.09;;;9.87;100.00
28588;BME280;15787;49.662;10.162;2023-04-19T06:37:01;99662.50;;;9.86;100.00
28588;BME280;15787;49.662;10.162;2023-04-19T06:39:35;99664.72;;;10.05;100.00
28588;BME280;15787;49.662;10.162;2023-04-19T06:42:08;99660.00;;;9.98;100.00
28588;BME280;15787;49.662;10.162;2023-04-19T06:44:41;99661.88;;;9.68;100.00
28588;BME280;15787;49.662;10.162;2023-04-19T06:47:16;99659.06;;;9.68;100.00
28588;BME280;15787;49.662;10.162;2023-04-19T06:49:50;99664.09;;;9.87;100.00
28588;BME280;15787;49.662;10.162;2023-04-19T06:52:23;99655.31;;;9.88;100.00
28588;BME280;15787;49.662;10.162;2023-04-19T06:54:56;99654.44;;;9.98;100.00
28588;BME280;15787;49.662;10.162;2023-04-19T06:57:29;99652.91;;;9.90;100.00
28588;BME280;15787;49.662;10.162;2023-04-19T07:00:03;99651.22;;;10.00;100.00
28588;BME280;15787;49.662;10.162;2023-04-19T07:02:37;99657.78;;;9.79;100.00
28588;BME280;15787;49.662;10.162;2023-04-19T07:05:12;99646.88;;;9.99;100.00
28588;BME280;15787;49.662;10.162;2023-04-19T07:07:44;99648.97;;;9.84;100.00
28588;BME280;15787;49.662;10.162;2023-04-19T07:10:17;99644.56;;;9.87;100.00
28588;BME280;15787;49.662;10.162;2023-04-19T07:12:50;99638.94;;;9.94;100.00
28588;BME280;15787;49.662;10.162;2023-04-19T07:15:23;99638.50;;;9.99;99.82
28588;BME280;15787;49.662;10.162;2023-04-19T07:17:56;99642.47;;;10.01;98.11
28588;BME280;15787;49.662;10.162;2023-04-19T07:20:30;99639.91;;;10.18;96.64
28588;BME280;15787;49.662;10.162;2023-04-19T07:23:03;99635.56;;;10.17;95.29
28588;BME280;15787;49.662;10.162;2023-04-19T07:25:36;99632.25;;;10.25;95.08
28588;BME280;15787;49.662;10.162;2023-04-19T07:28:09;99632.00;;;10.50;93.99
28588;BME280;15787;49.662;10.162;2023-04-19T07:30:42;99636.09;;;10.42;94.44
28588;BME280;15787;49.662;10.162;2023-04-19T07:33:16;99632.63;;;10.64;93.50
28588;BME280;15787;49.662;10.162;2023-04-19T07:35:50;99628.66;;;10.25;92.99
28588;BME280;15787;49.662;10.162;2023-04-19T07:38:23;99631.06;;;10.26;92.67
28588;BME280;15787;49.662;10.162;2023-04-19T07:40:56;99632.34;;;10.18;93.78
28588;BME280;15787;49.662;10.162;2023-04-19T07:43:29;99622.78;;;10.19;94.58
28588;BME280;15787;49.662;10.162;2023-04-19T07:46:08;99628.75;;;10.18;94.05
28588;BME280;15787;49.662;10.162;2023-04-19T07:48:41;99634.34;;;10.18;93.68
28588;BME280;15787;49.662;10.162;2023-04-19T07:51:16;99621.91;;;10.22;94.35
28588;BME280;15787;49.662;10.162;2023-04-19T07:53:49;99623.50;;;10.27;94.26
28588;BME280;15787;49.662;10.162;2023-04-19T07:56:22;99624.03;;;10.11;93.42
28588;BME280;15787;49.662;10.162;2023-04-19T07:58:56;99623.16;;;10.18;93.28
28588;BME280;15787;49.662;10.162;2023-04-19T08:01:40;99628.81;;;10.48;92.34
28588;BME280;15787;49.662;10.162;2023-04-19T08:04:13;99624.38;;;10.54;92.51
28588;BME280;15787;49.662;10.162;2023-04-19T08:06:50;99617.47;;;10.28;91.96
28588;BME280;15787;49.662;10.162;2023-04-19T08:09:23;99619.47;;;10.65;91.94
28588;BME280;15787;49.662;10.162;2023-04-19T08:11:56;99617.47;;;10.96;91.51
28588;BME280;15787;49.662;10.162;2023-04-19T08:14:29;99618.81;;;10.84;91.18
28588;BME280;15787;49.662;10.162;2023-04-19T08:17:14;99625.59;;;10.83;90.07
28588;BME280;15787;49.662;10.162;2023-04-19T08:19:59;99613.56;;;10.86;89.70
28588;BME280;15787;49.662;10.162;2023-04-19T08:22:33;99619.00;;;10.70;89.40
28588;BME280;15787;49.662;10.162;2023-04-19T08:25:07;99618.91;;;10.43;89.25
28588;BME280;15787;49.662;10.162;2023-04-19T08:27:43;99629.06;;;10.60;89.35
28588;BME280;15787;49.662;10.162;2023-04-19T08:30:16;99627.16;;;10.54;89.53
28588;BME280;15787;49.662;10.162;2023-04-19T08:32:49;99624.41;;;10.50;89.97
28588;BME280;15787;49.662;10.162;2023-04-19T08:35:24;99625.25;;;10.47;90.39
28588;BME280;15787;49.662;10.162;2023-04-19T08:37:59;99634.50;;;10.41;90.22
28588;BME280;15787;49.662;10.162;2023-04-19T08:40:34;99631.00;;;10.30;89.15
28588;BME280;15787;49.662;10.162;2023-04-19T08:43:07;99632.59;;;10.31;88.33
28588;BME280;15787;49.662;10.162;2023-04-19T08:45:40;99629.91;;;10.24;87.89
28588;BME280;15787;49.662;10.162;2023-04-19T08:48:14;99627.94;;;10.17;86.90
28588;BME280;15787;49.662;10.162;2023-04-19T08:50:48;99632.22;;;10.32;88.17
28588;BME280;15787;49.662;10.162;2023-04-19T08:53:35;99637.38;;;10.30;87.20
28588;BME280;15787;49.662;10.162;2023-04-19T08:56:10;99625.13;;;10.21;86.33
28588;BME280;15787;49.662;10.162;2023-04-19T08:59:02;99631.31;;;10.42;85.84
28588;BME280;15787;49.662;10.162;2023-04-19T09:01:41;99620.63;;;10.34;85.23
28588;BME280;15787;49.662;10.162;2023-04-19T09:04:15;99614.84;;;10.48;85.21
28588;BME280;15787;49.662;10.162;2023-04-19T09:07:07;99613.88;;;10.65;83.91
28588;BME280;15787;49.662;10.162;2023-04-19T09:09:42;99615.78;;;10.71;83.49
28588;BME280;15787;49.662;10.162;2023-04-19T09:12:33;99615.03;;;10.98;82.96
28588;BME280;15787;49.662;10.162;2023-04-19T09:15:07;99612.47;;;11.10;81.71
28588;BME280;15787;49.662;10.162;2023-04-19T09:17:40;99608.13;;;11.06;80.61
28588;BME280;15787;49.662;10.162;2023-04-19T09:20:13;99607.44;;;10.98;80.57
28588;BME280;15787;49.662;10.162;2023-04-19T09:23:01;99606.59;;;11.01;81.11
28588;BME280;15787;49.662;10.162;2023-04-19T09:25:36;99612.34;;;10.91;81.37
28588;BME280;15787;49.662;10.162;2023-04-19T09:28:29;99608.16;;;11.29;80.73
28588;BME280;15787;49.662;10.162;2023-04-19T09:31:09;99606.75;;;11.67;80.00
28588;BME280;15787;49.662;10.162;2023-04-19T09:34:14;99602.97;;;12.04;78.76
28588;BME280;15787;49.662;10.162;2023-04-19T09:36:48;99592.69;;;12.40;76.54
28588;BME280;15787;49.662;10.162;2023-04-19T09:39:39;99591.38;;;12.64;75.67
28588;BME280;15787;49.662;10.162;2023-04-19T09:42:13;99598.59;;;12.82;73.73
28588;BME280;15787;49.662;10.162;2023-04-19T09:44:57;99603.94;;;12.17;73.29
28588;BME280;15787;49.662;10.162;2023-04-19T09:47:33;99616.13;;;12.07;73.94
28588;BME280;15787;49.662;10.162;2023-04-19T09:50:07;99603.78;;;11.81;74.45
28588;BME280;15787;49.662;10.162;2023-04-19T09:52:45;99602.41;;;11.66;73.97
28588;BME280;15787;49.662;10.162;2023-04-19T09:55:21;99594.09;;;11.86;74.82
28588;BME280;15787;49.662;10.162;2023-04-19T09:58:00;99596.31;;;12.18;73.67
28588;BME280;15787;49.662;10.162;2023-04-19T10:00:33;99607.81;;;11.54;74.36
28588;BME280;15787;49.662;10.162;2023-04-19T10:03:20;99597.78;;;11.56;75.59
28588;BME280;15787;49.662;10.162;2023-04-19T10:05:54;99604.91;;;11.34;75.92
28588;BME280;15787;49.662;10.162;2023-04-19T10:08:28;99594.41;;;11.65;75.32
28588;BME280;15787;49.662;10.162;2023-04-19T10:11:01;99599.34;;;11.57;76.19
28588;BME280;15787;49.662;10.162;2023-04-19T10:13:36;99594.06;;;11.63;76.67
28588;BME280;15787;49.662;10.162;2023-04-19T10:16:09;99587.97;;;11.71;77.98
28588;BME280;15787;49.662;10.162;2023-04-19T10:18:51;99580.22;;;12.02;76.78
28588;BME280;15787;49.662;10.162;2023-04-19T10:21:26;99577.72;;;12.27;76.55
28588;BME280;15787;49.662;10.162;2023-04-19T10:23:59;99576.66;;;12.41;74.30
28588;BME280;15787;49.662;10.162;2023-04-19T10:29:59;99571.31;;;13.02;72.75
28588;BME280;15787;49.662;10.162;2023-04-19T10:32:38;99580.84;;;13.08;72.29
28588;BME280;15787;49.662;10.162;2023-04-19T10:35:17;99568.25;;;13.16;72.12
28588;BME280;15787;49.662;10.162;2023-04-19T10:38:07;99572.13;;;13.38;72.82
28588;BME280;15787;49.662;10.162;2023-04-19T10:40:53;99560.94;;;13.99;70.01
28588;BME280;15787;49.662;10.162;2023-04-19T10:43:28;99561.69;;;13.71;71.04
28588;BME280;15787;49.662;10.162;2023-04-19T10:46:06;99559.75;;;13.19;70.40
28588;BME280;15787;49.662;10.162;2023-04-19T10:48:49;99556.94;;;13.68;71.64
28588;BME280;15787;49.662;10.162;2023-04-19T10:51:26;99560.34;;;13.91;70.06
28588;BME280;15787;49.662;10.162;2023-04-19T10:54:00;99551.09;;;13.46;70.99
28588;BME280;15787;49.662;10.162;2023-04-19T10:57:00;99544.91;;;13.83;69.64
28588;BME280;15787;49.662;10.162;2023-04-19T10:59:36;99543.94;;;14.35;71.24
28588;BME280;15787;49.662;10.162;2023-04-19T11:02:27;99532.41;;;14.29;70.09
28588;BME280;15787;49.662;10.162;2023-04-19T11:05:01;99527.84;;;14.07;68.63
28588;BME280;15787;49.662;10.162;2023-04-19T11:07:39;99523.06;;;14.48;69.70
28588;BME280;15787;49.662;10.162;2023-04-19T11:10:27;99518.16;;;14.65;67.74
28588;BME280;15787;49.662;10.162;2023-04-19T11:13:00;99528.94;;;14.54;66.93
28588;BME280;15787;49.662;10.162;2023-04-19T11:15:33;99520.75;;;14.72;66.48
28588;BME280;15787;49.662;10.162;2023-04-19T11:18:07;99512.38;;;14.43;65.84
28588;BME280;15787;49.662;10.162;2023-04-19T11:20:51;99513.63;;;14.26;66.72
28588;BME280;15787;49.662;10.162;2023-04-19T11:23:25;99516.84;;;15.07;64.72
28588;BME280;15787;49.662;10.162;2023-04-19T11:25:58;99516.44;;;14.26;64.78
28588;BME280;15787;49.662;10.162;2023-04-19T11:28:32;99515.28;;;13.66;64.24
28588;BME280;15787;49.662;10.162;2023-04-19T11:31:05;99510.47;;;13.83;64.30
28588;BME280;15787;49.662;10.162;2023-04-19T11:33:39;99501.19;;;14.27;65.40
28588;BME280;15787;49.662;10.162;2023-04-19T11:36:12;99500.41;;;14.93;62.73
28588;BME280;15787;49.662;10.162;2023-04-19T11:38:46;99496.56;;;15.38;62.79
28588;BME280;15787;49.662;10.162;2023-04-19T11:41:19;99497.81;;;15.84;59.34
28588;BME280;15787;49.662;10.162;2023-04-19T11:43:52;99492.19;;;15.24;58.82
28588;BME280;15787;49.662;10.162;2023-04-19T11:46:25;99490.44;;;15.99;56.59
28588;BME280;15787;49.662;10.162;2023-04-19T11:48:59;99480.41;;;15.98;58.40
28588;BME280;15787;49.662;10.162;2023-04-19T11:51:32;99474.72;;;15.89;55.70
28588;BME280;15787;49.662;10.162;2023-04-19T11:54:11;99476.84;;;15.85;56.73
28588;BME280;15787;49.662;10.162;2023-04-19T11:56:58;99478.75;;;15.41;55.67
28588;BME280;15787;49.662;10.162;2023-04-19T11:59:34;99486.84;;;14.38;57.59
28588;BME280;15787;49.662;10.162;2023-04-19T12:02:08;99465.31;;;14.85;56.78
28588;BME280;15787;49.662;10.162;2023-04-19T12:04:43;99454.75;;;15.61;55.79
28588;BME280;15787;49.662;10.162;2023-04-19T12:07:16;99453.41;;;14.81;55.25
28588;BME280;15787;49.662;10.162;2023-04-19T12:09:49;99458.91;;;14.97;54.99
28588;BME280;15787;49.662;10.162;2023-04-19T12:12:32;99452.81;;;15.71;54.91
28588;BME280;15787;49.662;10.162;2023-04-19T12:15:05;99434.50;;;15.88;52.50
28588;BME280;15787;49.662;10.162;2023-04-19T12:17:57;99437.50;;;16.37;51.92
28588;BME280;15787;49.662;10.162;2023-04-19T12:20:33;99437.94;;;16.35;51.97
28588;BME280;15787;49.662;10.162;2023-04-19T12:23:06;99432.53;;;16.19;49.74
28588;BME280;15787;49.662;10.162;2023-04-19T12:25:43;99426.78;;;16.54;51.29
28588;BME280;15787;49.662;10.162;2023-04-19T12:28:16;99432.19;;;16.17;49.33
28588;BME280;15787;49.662;10.162;2023-04-19T12:30:49;99427.94;;;16.34;50.10
28588;BME280;15787;49.662;10.162;2023-04-19T12:33:23;99427.38;;;16.49;47.86
28588;BME280;15787;49.662;10.162;2023-04-19T12:35:57;99429.78;;;16.99;49.32
28588;BME280;15787;49.662;10.162;2023-04-19T12:38:31;99418.47;;;17.48;48.51
28588;BME280;15787;49.662;10.162;2023-04-19T12:41:04;99425.16;;;17.23;45.75
28588;BME280;15787;49.662;10.162;2023-04-19T12:43:37;99420.63;;;16.77;44.18
28588;BME280;15787;49.662;10.162;2023-04-19T12:46:10;99424.38;;;16.74;44.19
28588;BME280;15787;49.662;10.162;2023-04-19T12:48:42;99427.16;;;16.65;44.37
28588;BME280;15787;49.662;10.162;2023-04-19T12:51:17;99419.03;;;16.45;46.76
28588;BME280;15787;49.662;10.162;2023-04-19T12:53:51;99416.91;;;16.27;45.31
28588;BME280;15787;49.662;10.162;2023-04-19T12:56:24;99409.47;;;16.64;46.68
28588;BME280;15787;49.662;10.162;2023-04-19T12:58:57;99420.06;;;16.29;46.41
28588;BME280;15787;49.662;10.162;2023-04-19T13:01:31;99420.59;;;16.15;47.30
28588;BME280;15787;49.662;10.162;2023-04-19T13:04:04;99413.94;;;16.53;47.64
28588;BME280;15787;49.662;10.162;2023-04-19T13:06:44;99415.38;;;17.06;46.91
28588;BME280;15787;49.662;10.162;2023-04-19T13:09:17;99408.50;;;17.07;44.73
28588;BME280;15787;49.662;10.162;2023-04-19T13:11:50;99403.06;;;17.40;44.99
28588;BME280;15787;49.662;10.162;2023-04-19T13:14:24;99408.56;;;17.25;44.48
28588;BME280;15787;49.662;10.162;2023-04-19T13:16:57;99413.88;;;17.23;42.04
28588;BME280;15787;49.662;10.162;2023-04-19T13:19:29;99405.94;;;16.51;42.39
28588;BME280;15787;49.662;10.162;2023-04-19T13:22:04;99401.69;;;16.77;42.56
28588;BME280;15787;49.662;10.162;2023-04-19T13:24:37;99394.03;;;16.96;42.66
28588;BME280;15787;49.662;10.162;2023-04-19T13:27:10;99391.22;;;16.87;42.37
28588;BME280;15787;49.662;10.162;2023-04-19T13:29:43;99385.69;;;17.41;43.99
28588;BME280;15787;49.662;10.162;2023-04-19T13:32:17;99375.66;;;17.86;45.25
28588;BME280;15787;49.662;10.162;2023-04-19T13:34:50;99400.66;;;16.93;41.70
28588;BME280;15787;49.662;10.162;2023-04-19T13:37:25;99394.44;;;16.67;42.63